createdAt,value
2018-02-15T00:01:54.964Z,56.40
2018-02-15T00:04:22.415Z,56.40
2018-02-15T00:06:49.874Z,56.40
2018-02-15T00:09:17.339Z,56.40
2018-02-15T00:11:44.783Z,56.50
2018-02-15T00:14:12.252Z,56.50
2018-02-15T00:16:39.695Z,56.50
2018-02-15T00:19:07.915Z,56.60
2018-02-15T00:21:35.360Z,56.50
2018-02-15T00:24:02.824Z,56.50
2018-02-15T00:26:30.265Z,56.50
2018-02-15T00:28:57.729Z,56.50
2018-02-15T00:31:25.179Z,56.30
2018-02-15T00:33:53.394Z,56.40
2018-02-15T00:36:20.842Z,56.40
2018-02-15T00:38:48.291Z,56.50
2018-02-15T00:41:16.514Z,56.40
2018-02-15T00:43:43.970Z,56.40
2018-02-15T00:46:11.409Z,56.40
2018-02-15T00:48:38.873Z,56.50
2018-02-15T00:51:06.313Z,56.50
2018-02-15T00:53:34.531Z,56.50
2018-02-15T00:56:02.003Z,56.50
2018-02-15T00:58:29.452Z,56.40
2018-02-15T01:00:56.912Z,56.50
2018-02-15T01:03:24.354Z,56.50
2018-02-15T01:05:51.814Z,56.50
2018-02-15T01:08:20.015Z,56.40
2018-02-15T01:10:47.462Z,56.40
2018-02-15T01:13:14.910Z,56.40
2018-02-15T01:15:43.144Z,56.50
2018-02-15T01:18:10.587Z,56.40
2018-02-15T01:20:38.051Z,56.40
2018-02-15T01:23:05.496Z,56.50
2018-02-15T01:25:32.968Z,56.50
2018-02-15T01:28:00.424Z,56.50
2018-02-15T01:30:27.892Z,56.50
2018-02-15T01:32:55.348Z,56.50
2018-02-15T01:35:22.807Z,56.50
2018-02-15T01:37:50.251Z,56.50
2018-02-15T01:40:17.719Z,56.50
2018-02-15T01:42:45.176Z,56.50
2018-02-15T01:45:13.402Z,56.20
2018-02-15T01:47:40.844Z,56.20
2018-02-15T01:50:08.311Z,56.30
2018-02-15T01:52:35.747Z,56.40
2018-02-15T01:55:03.203Z,56.40
2018-02-15T01:57:31.423Z,56.40
2018-02-15T01:59:58.884Z,56.40
2018-02-15T02:02:26.330Z,56.50
2018-02-15T02:04:53.786Z,56.50
2018-02-15T02:07:21.235Z,56.50
2018-02-15T02:09:49.455Z,56.50
2018-02-15T02:12:16.911Z,56.50
2018-02-15T02:14:44.375Z,56.60
2018-02-15T02:17:11.827Z,56.50
2018-02-15T02:19:39.290Z,56.50
2018-02-15T02:22:06.756Z,56.50
2018-02-15T02:24:34.219Z,56.60
2018-02-15T02:27:01.677Z,56.60
2018-02-15T02:29:29.125Z,56.50
2018-02-15T02:31:56.576Z,56.60
2018-02-15T02:34:24.788Z,56.60
2018-02-15T02:36:52.251Z,56.60
2018-02-15T02:39:19.702Z,56.60
2018-02-15T02:41:47.172Z,56.80
2018-02-15T02:44:14.611Z,56.70
2018-02-15T02:46:42.093Z,56.50
2018-02-15T02:49:09.536Z,56.20
2018-02-15T02:51:36.990Z,56.70
2018-02-15T02:54:05.205Z,55.70
2018-02-15T02:56:32.671Z,55.70
2018-02-15T02:59:00.128Z,55.50
2018-02-15T03:01:27.608Z,55.70
2018-02-15T03:03:55.068Z,55.90
2018-02-15T03:06:22.517Z,55.50
2018-02-15T03:08:49.962Z,55.90
2018-02-15T03:11:17.422Z,56.10
2018-02-15T03:13:44.871Z,55.70
2018-02-15T03:16:13.100Z,55.80
2018-02-15T03:18:40.550Z,55.80
2018-02-15T03:21:08.005Z,55.40
2018-02-15T03:23:35.463Z,55.00
2018-02-15T03:26:02.910Z,55.40
2018-02-15T03:28:30.369Z,55.30
2018-02-15T03:30:57.833Z,55.10
2018-02-15T03:33:25.284Z,55.60
2018-02-15T03:35:53.505Z,55.20
2018-02-15T03:38:20.951Z,55.20
2018-02-15T03:40:48.416Z,55.50
2018-02-15T03:43:15.869Z,55.70
2018-02-15T03:45:43.315Z,55.90
2018-02-15T03:48:10.774Z,56.30
2018-02-15T03:50:38.992Z,56.60
2018-02-15T03:53:06.449Z,57.30
2018-02-15T03:55:33.895Z,56.50
2018-02-15T03:58:01.359Z,56.60
2018-02-15T04:00:28.800Z,56.80
2018-02-15T04:02:57.023Z,57.00
2018-02-15T04:05:24.481Z,57.00
2018-02-15T04:07:51.974Z,57.20
2018-02-15T04:10:19.428Z,57.20
2018-02-15T04:12:46.892Z,57.20
2018-02-15T04:15:14.333Z,57.50
2018-02-15T04:17:41.812Z,58.10
2018-02-15T04:20:09.235Z,57.80
2018-02-15T04:22:36.791Z,58.10
2018-02-15T04:25:04.999Z,57.90
2018-02-15T04:27:32.477Z,57.90
2018-02-15T04:29:59.914Z,58.90
2018-02-15T04:32:27.383Z,59.00
2018-02-15T04:34:54.831Z,58.40
2018-02-15T04:37:22.305Z,59.10
2018-02-15T04:39:49.770Z,58.70
2018-02-15T04:42:17.227Z,60.80
2018-02-15T04:44:44.684Z,59.70
2018-02-15T04:47:12.155Z,60.60
2018-02-15T04:49:39.616Z,59.80
2018-02-15T04:52:07.067Z,61.30
2018-02-15T04:54:34.520Z,60.70
2018-02-15T04:57:01.981Z,60.50
2018-02-15T04:59:30.190Z,62.40
2018-02-15T05:01:57.637Z,62.40
2018-02-15T05:04:25.078Z,61.50
2018-02-15T05:06:52.556Z,61.30
2018-02-15T05:09:20.007Z,61.40
2018-02-15T05:11:47.467Z,61.40
2018-02-15T05:14:15.699Z,62.10
2018-02-15T05:16:43.159Z,62.10
2018-02-15T05:19:10.629Z,62.50
2018-02-15T05:21:38.085Z,62.30
2018-02-15T05:24:05.542Z,63.90
2018-02-15T05:26:32.991Z,63.50
2018-02-15T05:29:00.446Z,63.60
2018-02-15T05:31:27.898Z,64.20
2018-02-15T05:33:55.358Z,64.30
2018-02-15T05:36:22.824Z,64.40
2018-02-15T05:38:50.279Z,63.90
2018-02-15T05:41:17.727Z,63.70
2018-02-15T05:43:45.961Z,65.20
2018-02-15T05:46:13.415Z,65.10
2018-02-15T05:48:40.883Z,64.60
2018-02-15T05:51:08.343Z,64.90
2018-02-15T05:53:35.807Z,65.00
2018-02-15T05:56:03.267Z,64.80
2018-02-15T05:58:30.730Z,64.80
2018-02-15T06:00:58.192Z,64.70
2018-02-15T06:03:25.654Z,64.80
2018-02-15T06:05:53.111Z,66.40
2018-02-15T06:08:20.571Z,65.70
2018-02-15T06:10:48.022Z,65.50
2018-02-15T06:13:15.492Z,65.50
2018-02-15T06:15:42.951Z,65.70
2018-02-15T06:18:10.425Z,65.60
2018-02-15T06:20:37.885Z,65.60
2018-02-15T06:23:05.351Z,65.80
2018-02-15T06:25:32.803Z,66.00
2018-02-15T06:28:00.268Z,65.80
2018-02-15T06:30:27.713Z,65.80
2018-02-15T06:32:55.160Z,66.30
2018-02-15T06:35:22.625Z,66.60
2018-02-15T06:37:50.084Z,66.80
2018-02-15T06:40:17.551Z,66.80
2018-02-15T06:42:44.994Z,66.60
2018-02-15T06:45:13.227Z,67.10
2018-02-15T06:47:40.728Z,67.10
2018-02-15T06:50:08.190Z,67.20
2018-02-15T06:52:35.707Z,67.80
2018-02-15T06:55:03.175Z,67.30
2018-02-15T06:57:30.631Z,67.00
2018-02-15T06:59:58.109Z,66.90
2018-02-15T07:02:25.566Z,66.90
2018-02-15T07:04:53.036Z,67.10
2018-02-15T07:07:20.498Z,67.00
2018-02-15T07:09:47.946Z,67.10
2018-02-15T07:12:15.409Z,67.00
2018-02-15T07:14:42.887Z,67.10
2018-02-15T07:17:10.344Z,67.20
2018-02-15T07:19:37.806Z,67.20
2018-02-15T07:22:05.266Z,67.40
2018-02-15T07:24:32.727Z,67.40
2018-02-15T07:27:00.187Z,67.40
2018-02-15T07:29:27.675Z,67.40
2018-02-15T07:31:55.142Z,68.20
2018-02-15T07:34:22.598Z,67.60
2018-02-15T07:36:50.058Z,67.50
2018-02-15T07:39:17.519Z,67.60
2018-02-15T07:41:44.971Z,67.80
2018-02-15T07:44:12.430Z,67.90
2018-02-15T07:46:39.887Z,68.50
2018-02-15T07:49:07.361Z,68.30
2018-02-15T07:51:34.812Z,68.20
2018-02-15T07:54:02.274Z,68.20
2018-02-15T07:56:29.718Z,69.40
2018-02-15T07:58:57.191Z,69.70
2018-02-15T08:01:24.643Z,69.10
2018-02-15T08:03:52.094Z,69.30
2018-02-15T08:06:19.564Z,69.20
2018-02-15T08:08:47.028Z,69.00
2018-02-15T08:11:14.475Z,69.30
2018-02-15T08:13:41.968Z,69.50
2018-02-15T08:16:10.169Z,70.80
2018-02-15T08:18:37.615Z,70.70
2018-02-15T08:21:05.096Z,70.40
2018-02-15T08:23:32.556Z,70.70
2018-02-15T08:26:00.043Z,69.80
2018-02-15T08:28:27.479Z,70.20
2018-02-15T08:30:54.955Z,70.70
2018-02-15T08:33:22.418Z,72.20
2018-02-15T08:35:49.875Z,71.60
2018-02-15T08:38:17.334Z,71.20
2018-02-15T08:40:44.791Z,72.70
2018-02-15T08:43:12.238Z,72.90
2018-02-15T08:45:39.708Z,71.80
2018-02-15T08:48:07.159Z,71.40
2018-02-15T08:50:34.638Z,71.50
2018-02-15T08:53:02.074Z,72.20
2018-02-15T08:55:29.588Z,72.60
2018-02-15T08:57:57.049Z,73.30
2018-02-15T09:00:24.511Z,71.80
2018-02-15T09:02:51.950Z,70.60
2018-02-15T09:05:19.421Z,72.30
2018-02-15T09:07:46.880Z,71.60
2018-02-15T09:10:14.335Z,71.00
2018-02-15T09:12:41.787Z,70.80
2018-02-15T09:15:09.246Z,71.10
2018-02-15T09:17:36.706Z,72.20
2018-02-15T09:20:04.160Z,72.20
2018-02-15T09:22:31.614Z,71.40
2018-02-15T09:24:59.069Z,72.20
2018-02-15T09:27:27.296Z,71.40
2018-02-15T09:29:54.763Z,71.30
2018-02-15T09:32:23.039Z,71.20
2018-02-15T09:34:50.492Z,71.20
2018-02-15T09:37:18.170Z,71.50
2018-02-15T09:39:45.626Z,71.50
2018-02-15T09:42:13.102Z,72.30
2018-02-15T09:44:40.557Z,71.40
2018-02-15T09:47:08.027Z,70.80
2018-02-15T09:49:35.478Z,71.50
2018-02-15T09:52:02.931Z,71.90
2018-02-15T09:54:30.396Z,72.00
2018-02-15T09:56:57.860Z,71.80
2018-02-15T09:59:25.306Z,72.10
2018-02-15T10:01:52.775Z,71.30
2018-02-15T10:04:20.235Z,71.60
2018-02-15T10:06:47.690Z,71.50
2018-02-15T10:09:15.155Z,72.20
2018-02-15T10:11:42.635Z,72.50
2018-02-15T10:14:10.092Z,75.00
2018-02-15T10:16:37.552Z,74.10
2018-02-15T10:19:05.010Z,73.00
2018-02-15T10:21:32.483Z,72.70
2018-02-15T10:23:59.932Z,72.00
2018-02-15T10:26:27.393Z,72.30
2018-02-15T10:28:54.859Z,73.60
2018-02-15T10:31:22.326Z,73.90
2018-02-15T10:33:49.781Z,73.10
2018-02-15T10:36:17.245Z,73.80
2018-02-15T10:38:45.515Z,72.60
2018-02-15T10:41:12.972Z,72.50
2018-02-15T10:43:40.434Z,72.40
2018-02-15T10:46:07.899Z,73.40
2018-02-15T10:48:35.377Z,72.80
2018-02-15T10:51:03.678Z,72.50
2018-02-15T10:53:31.126Z,72.40
2018-02-15T10:55:58.578Z,72.50
2018-02-15T10:58:26.045Z,72.70
2018-02-15T11:00:59.051Z,72.40
2018-02-15T11:03:30.411Z,72.40
2018-02-15T11:06:00.795Z,73.20
2018-02-15T11:08:28.283Z,73.40
2018-02-15T11:10:55.735Z,73.10
2018-02-15T11:13:23.205Z,73.30
2018-02-15T11:15:50.664Z,73.20
2018-02-15T11:18:18.133Z,72.90
2018-02-15T11:20:45.588Z,73.50
2018-02-15T11:23:13.056Z,74.10
2018-02-15T11:25:40.511Z,73.40
2018-02-15T11:28:08.738Z,73.50
2018-02-15T11:30:36.174Z,73.50
2018-02-15T11:33:03.639Z,73.60
2018-02-15T11:35:31.084Z,73.30
2018-02-15T11:37:58.542Z,73.10
2018-02-15T11:40:25.987Z,73.10
2018-02-15T11:42:53.461Z,72.90
2018-02-15T11:45:20.923Z,73.20
2018-02-15T11:47:48.378Z,73.10
2018-02-15T11:50:15.827Z,73.40
2018-02-15T11:52:44.042Z,74.10
2018-02-15T11:55:11.490Z,74.10
2018-02-15T11:57:38.937Z,73.50
2018-02-15T12:00:06.388Z,73.40
2018-02-15T12:02:34.608Z,73.30
2018-02-15T12:05:02.076Z,73.30
2018-02-15T12:07:29.533Z,73.30
2018-02-15T12:09:56.987Z,73.30
2018-02-15T12:12:24.447Z,73.40
2018-02-15T12:14:51.907Z,73.30
2018-02-15T12:17:19.371Z,73.30
2018-02-15T12:19:46.817Z,73.30
2018-02-15T12:22:14.275Z,73.40
2018-02-15T12:24:41.731Z,73.50
2018-02-15T12:27:09.942Z,73.50
2018-02-15T12:29:37.411Z,73.50
2018-02-15T12:32:04.859Z,73.60
2018-02-15T12:34:32.324Z,73.50
2018-02-15T12:36:59.767Z,73.50
2018-02-15T12:39:27.239Z,73.60
2018-02-15T12:41:54.679Z,73.70
2018-02-15T12:44:22.904Z,73.70
2018-02-15T12:46:50.350Z,73.70
2018-02-15T12:49:17.801Z,73.70
2018-02-15T12:51:45.230Z,73.70
2018-02-15T12:54:12.678Z,73.80
2018-02-15T12:56:40.139Z,73.80
2018-02-15T12:59:07.636Z,73.80
2018-02-15T13:01:35.842Z,73.90
2018-02-15T13:04:03.304Z,73.80
2018-02-15T13:06:30.754Z,73.90
2018-02-15T13:08:58.209Z,73.90
2018-02-15T13:11:26.422Z,73.90
2018-02-15T13:13:53.884Z,74.00
2018-02-15T13:16:33.147Z,74.00
2018-02-15T13:19:12.444Z,74.10
2018-02-15T13:21:39.888Z,74.10
2018-02-15T13:24:07.372Z,74.20
2018-02-15T13:26:34.816Z,74.20
2018-02-15T13:29:02.270Z,74.30
2018-02-15T13:31:29.728Z,74.50
2018-02-15T13:33:57.184Z,74.40
2018-02-15T13:36:25.395Z,75.10
2018-02-15T13:38:52.851Z,75.10
2018-02-15T13:41:20.295Z,74.70
2018-02-15T13:43:47.750Z,74.60
2018-02-15T13:46:15.959Z,74.50
2018-02-15T13:48:43.403Z,74.50
2018-02-15T13:51:10.867Z,74.60
2018-02-15T13:53:38.311Z,74.60
2018-02-15T13:56:06.533Z,74.60
2018-02-15T13:58:33.971Z,74.60
2018-02-15T14:01:01.424Z,74.60
2018-02-15T14:03:29.628Z,74.70
2018-02-15T14:05:57.084Z,74.60
2018-02-15T14:08:24.530Z,74.70
2018-02-15T14:10:52.743Z,74.90
2018-02-15T14:13:20.185Z,74.70
2018-02-15T14:15:47.653Z,74.90
2018-02-15T14:18:15.100Z,74.90
2018-02-15T14:20:42.556Z,74.90
2018-02-15T14:23:09.990Z,74.90
2018-02-15T14:25:37.449Z,74.90
2018-02-15T14:28:04.886Z,74.90
2018-02-15T14:30:32.344Z,75.00
2018-02-15T14:32:59.787Z,75.20
2018-02-15T14:35:27.257Z,75.20
2018-02-15T14:37:54.698Z,75.20
2018-02-15T14:40:22.189Z,75.30
2018-02-15T14:42:50.368Z,75.30
2018-02-15T14:45:17.816Z,75.30
2018-02-15T14:47:45.255Z,75.40
2018-02-15T14:50:13.468Z,75.40
2018-02-15T14:52:40.911Z,75.40
2018-02-15T14:55:08.354Z,75.40
2018-02-15T14:57:36.564Z,75.50
2018-02-15T15:00:04.018Z,75.50
2018-02-15T15:02:31.462Z,75.50
2018-02-15T15:04:59.691Z,75.60
2018-02-15T15:07:27.127Z,75.60
2018-02-15T15:09:54.577Z,75.70
2018-02-15T15:12:22.027Z,75.80
2018-02-15T15:14:50.252Z,75.90
2018-02-15T15:17:17.697Z,75.90
2018-02-15T15:19:45.129Z,76.00
2018-02-15T15:22:13.341Z,76.10
2018-02-15T15:24:40.786Z,76.10
2018-02-15T15:27:08.242Z,76.20
2018-02-15T15:29:35.691Z,76.20
2018-02-15T15:32:03.915Z,76.20
2018-02-15T15:34:31.354Z,76.20
2018-02-15T15:36:58.803Z,76.20
2018-02-15T15:39:27.026Z,76.50
2018-02-15T15:41:54.470Z,76.50
2018-02-15T15:44:21.930Z,76.50
2018-02-15T15:46:49.388Z,76.50
2018-02-15T15:49:16.827Z,76.60
2018-02-15T15:51:45.053Z,76.70
2018-02-15T15:54:12.495Z,76.70
2018-02-15T15:56:39.959Z,76.70
2018-02-15T15:59:07.400Z,76.80
2018-02-15T16:01:34.859Z,76.80
2018-02-15T16:04:03.059Z,76.80
2018-02-15T16:06:30.504Z,76.80
2018-02-15T16:08:57.933Z,76.80
2018-02-15T16:11:25.392Z,76.90
2018-02-15T16:13:52.841Z,77.00
2018-02-15T16:16:20.282Z,77.00
2018-02-15T16:18:47.723Z,77.00
2018-02-15T16:21:15.183Z,77.10
2018-02-15T16:23:42.620Z,77.10
2018-02-15T16:26:10.848Z,77.20
2018-02-15T16:28:38.287Z,77.20
2018-02-15T16:31:05.748Z,77.30
2018-02-15T16:33:33.183Z,77.40
2018-02-15T16:36:00.639Z,77.40
2018-02-15T16:38:28.078Z,77.50
2018-02-15T16:40:55.558Z,77.50
2018-02-15T16:43:23.003Z,77.50
2018-02-15T16:45:50.438Z,77.50
2018-02-15T16:48:17.895Z,77.50
2018-02-15T16:50:45.348Z,77.50
2018-02-15T16:53:12.780Z,77.50
2018-02-15T16:55:40.978Z,77.60
2018-02-15T16:58:08.410Z,77.60
2018-02-15T17:00:35.854Z,77.60
2018-02-15T17:03:03.299Z,77.60
2018-02-15T17:05:30.747Z,78.30
2018-02-15T17:07:58.176Z,77.70
2018-02-15T17:10:26.372Z,77.80
2018-02-15T17:12:53.809Z,77.80
2018-02-15T17:15:22.020Z,77.90
2018-02-15T17:17:49.455Z,77.80
2018-02-15T17:20:17.649Z,77.80
2018-02-15T17:22:45.866Z,77.80
2018-02-15T17:25:13.301Z,77.80
2018-02-15T17:27:40.746Z,77.80
2018-02-15T17:30:08.936Z,77.90
2018-02-15T17:32:36.381Z,77.90
2018-02-15T17:35:04.585Z,77.80
2018-02-15T17:37:32.023Z,77.80
2018-02-15T17:40:00.238Z,77.80
2018-02-15T17:42:27.688Z,77.80
2018-02-15T17:44:55.130Z,77.80
2018-02-15T17:47:23.344Z,77.80
2018-02-15T17:49:50.776Z,77.90
2018-02-15T17:52:18.981Z,77.80
2018-02-15T17:54:46.430Z,77.80
2018-02-15T17:57:13.868Z,77.90
2018-02-15T17:59:42.065Z,78.10
2018-02-15T18:02:09.511Z,77.90
2018-02-15T18:04:37.701Z,78.10
2018-02-15T18:07:05.909Z,78.10
2018-02-15T18:09:33.336Z,78.10
2018-02-15T18:12:01.532Z,78.10
2018-02-15T18:14:28.964Z,78.20
2018-02-15T18:16:57.162Z,78.20
2018-02-15T18:19:25.364Z,78.20
2018-02-15T18:21:52.793Z,78.20
2018-02-15T18:24:20.992Z,78.20
2018-02-15T18:26:48.432Z,78.10
2018-02-15T18:29:16.646Z,78.10
2018-02-15T18:31:46.777Z,78.10
2018-02-15T18:34:14.211Z,78.10
2018-02-15T18:36:41.643Z,78.10
2018-02-15T18:39:09.084Z,78.10
2018-02-15T18:41:36.529Z,78.20
2018-02-15T18:44:03.980Z,78.20
2018-02-15T18:46:31.493Z,78.30
2018-02-15T18:48:58.935Z,78.30
2018-02-15T18:51:26.366Z,78.40
2018-02-15T18:53:53.825Z,78.40
2018-02-15T18:56:21.273Z,78.30
2018-02-15T18:58:49.487Z,78.60
2018-02-15T19:01:16.925Z,78.50
2018-02-15T19:03:44.364Z,78.50
2018-02-15T19:06:12.561Z,78.70
2018-02-15T19:08:39.992Z,78.60
2018-02-15T19:11:07.442Z,78.60
2018-02-15T19:13:34.880Z,78.70
2018-02-15T19:16:02.325Z,78.70
2018-02-15T19:18:29.782Z,78.70
2018-02-15T19:20:57.219Z,78.70
2018-02-15T19:23:25.417Z,78.70
2018-02-15T19:25:52.871Z,78.70
2018-02-15T19:28:20.329Z,78.70
2018-02-15T19:30:48.535Z,78.90
2018-02-15T19:33:15.985Z,78.80
2018-02-15T19:35:43.447Z,78.90
2018-02-15T19:38:11.638Z,78.90
2018-02-15T19:40:39.053Z,78.90
2018-02-15T19:43:07.277Z,79.00
2018-02-15T19:45:34.727Z,79.00
2018-02-15T19:48:02.170Z,79.00
2018-02-15T19:50:30.387Z,79.10
2018-02-15T19:52:57.822Z,79.10
2018-02-15T19:55:25.257Z,79.20
2018-02-15T19:57:52.688Z,79.40
2018-02-15T20:00:20.140Z,79.40
2018-02-15T20:02:47.595Z,79.50
2018-02-15T20:05:15.044Z,79.40
2018-02-15T20:07:42.479Z,79.80
2018-02-15T20:10:10.680Z,79.70
2018-02-15T20:12:38.125Z,79.70
2018-02-15T20:15:06.336Z,79.80
2018-02-15T20:17:33.769Z,79.80
2018-02-15T20:20:07.637Z,80.60
2018-02-15T20:22:35.085Z,80.50
2018-02-15T20:25:02.534Z,80.30
2018-02-15T20:27:35.642Z,80.30
2018-02-15T20:30:03.098Z,80.30
2018-02-15T20:32:30.544Z,80.30
2018-02-15T20:34:57.980Z,80.20
2018-02-15T20:37:30.978Z,80.20
2018-02-15T20:40:03.995Z,80.20
2018-02-15T20:42:31.440Z,80.20
2018-02-15T20:44:58.901Z,80.20
2018-02-15T20:47:26.335Z,80.20
2018-02-15T20:50:00.093Z,80.20
2018-02-15T20:52:33.086Z,80.30
2018-02-15T20:58:05.431Z,80.30
2018-02-15T21:00:32.917Z,80.40
2018-02-15T21:03:00.317Z,80.40
2018-02-15T21:05:27.791Z,80.50
2018-02-15T21:07:55.987Z,80.60
2018-02-15T21:10:23.508Z,80.40
2018-02-15T21:12:50.943Z,80.60
2018-02-15T21:15:18.500Z,80.60
2018-02-15T21:17:45.944Z,80.60
2018-02-15T21:20:13.423Z,80.70
2018-02-15T21:22:40.862Z,80.70
2018-02-15T21:25:09.068Z,80.70
2018-02-15T21:27:36.500Z,80.80
2018-02-15T21:30:03.958Z,80.80
2018-02-15T21:32:32.182Z,80.90
2018-02-15T21:34:59.638Z,80.90
2018-02-15T21:37:27.078Z,80.90
2018-02-15T21:39:54.502Z,81.00
2018-02-15T21:42:21.944Z,81.00
2018-02-15T21:44:49.385Z,81.00
2018-02-15T21:47:16.829Z,81.00
2018-02-15T21:49:44.284Z,81.00
2018-02-15T21:52:11.729Z,81.10
2018-02-15T21:54:39.943Z,81.00
2018-02-15T21:57:07.389Z,81.00
2018-02-15T21:59:34.836Z,81.00
2018-02-15T22:02:03.057Z,81.10
2018-02-15T22:04:30.489Z,81.10
2018-02-15T22:06:57.941Z,81.20
2018-02-15T22:09:26.131Z,81.10
2018-02-15T22:11:53.585Z,81.10
2018-02-15T22:14:21.025Z,81.20
2018-02-15T22:16:48.473Z,81.30
2018-02-15T22:19:15.950Z,81.70
2018-02-15T22:21:43.393Z,81.40
2018-02-15T22:24:11.616Z,81.30
2018-02-15T22:26:39.846Z,81.30
2018-02-15T22:29:07.286Z,81.40
2018-02-15T22:31:34.734Z,81.20
2018-02-15T22:34:02.162Z,81.30
2018-02-15T22:36:29.619Z,81.30
2018-02-15T22:38:57.209Z,81.30
2018-02-15T22:41:25.423Z,81.50
2018-02-15T22:43:52.863Z,81.40
2018-02-15T22:46:20.327Z,81.40
2018-02-15T22:48:47.772Z,81.40
2018-02-15T22:51:15.995Z,81.40
2018-02-15T22:53:43.443Z,81.40
2018-02-15T22:56:10.894Z,81.40
2018-02-15T22:58:38.340Z,81.40
2018-02-15T23:01:06.558Z,81.20
2018-02-15T23:03:34.008Z,81.20
2018-02-15T23:06:01.447Z,81.10
2018-02-15T23:08:29.671Z,81.10
2018-02-15T23:10:57.111Z,81.10
2018-02-15T23:13:24.546Z,81.20
2018-02-15T23:15:52.751Z,81.30
2018-02-15T23:18:20.261Z,81.30
2018-02-15T23:20:48.480Z,81.20
2018-02-15T23:23:15.923Z,81.20
2018-02-15T23:25:43.348Z,81.10
2018-02-15T23:28:10.836Z,81.00
2018-02-15T23:30:39.048Z,81.20
2018-02-15T23:33:06.506Z,81.20
2018-02-15T23:35:33.962Z,81.10
2018-02-15T23:38:01.405Z,81.20
2018-02-15T23:40:28.842Z,81.10
2018-02-15T23:42:56.281Z,81.00
2018-02-15T23:45:23.713Z,80.70
2018-02-15T23:47:51.157Z,80.80
2018-02-15T23:50:18.603Z,80.80
2018-02-15T23:52:46.822Z,80.90
2018-02-15T23:55:14.258Z,80.90
2018-02-15T23:57:41.734Z,80.80
